Lake Tahoe, CA

4:54 PM PDT on August 02, 2015 (GMT -0700)
Lake Tahoe | | Change Station
CLOSE
Current Station
Airport
Location: South Lake Tahoe,
Elevation: 6263 ft
Nearby Weather Stations

Elev 6263 ft 38.90 °N, 120.00 °W | Updated 1 hour ago

Mostly Cloudy
Mostly Cloudy
66 °F
Feels Like 66 °F
N
0
Wind Variable Wind from North

Today
High -- | Low -- °F
--% Chance of Precip.
Yesterday
High -- | Low -- °F
Precip. -- in
6:01 AM 8:10 PM
Waning Gibbous, 91% visible
Pressure 30.02 in
Visibility 10.0 miles
Clouds Mostly Cloudy 8000 ft
Mostly Cloudy 11000 ft
Dew Point 58 °F
Humidity 75%
Rainfall 0.10 in
Snow Depth Not available.
UV 4 out of 12
Pollen 5.10 out of 12
Air Quality Not available.
Flu Activity Not available.
METAR KTVL 022253Z AUTO 00000KT 10SM BKN080 BKN110 19/14 A3019 RMK AO2 LTG DSNT N AND SE RAE17 SLP164 P0009 T01890144

More Conditions Fewer Conditions

Pressure 30.02 in
Visibility 10.0 miles
Clouds Mostly Cloudy 8000 ft
Mostly Cloudy 11000 ft
Dew Point 58 °F
Humidity 75%
Rainfall 0.10 in
Snow Depth Not available.
UV 4 out of 12
Pollen 5.10 out of 12
Air Quality Not available.
Flu Activity Not available.
METAR KTVL 022253Z AUTO 00000KT 10SM BKN080 BKN110 19/14 A3019 RMK AO2 LTG DSNT N AND SE RAE17 SLP164 P0009 T01890144

More Conditions Fewer Conditions

10-Day Weather Forecast

×

Almanac

Astronomy

Aug. 02, 2015 Rise Set
Actual Time
Civil Twilight
Nautical Twilight
Astronomical Twilight
Moon
Length of Visible Light
Length of Day
Tomorrow will be .
, % of the Moon is Illuminated

Today's Extremes

State Highs State Lows

Community

WunderPhotos

Upload Photos

1,843,428 photos uploaded!

WunderBlogs® & News

Nearby

Air Quality

  Air Quality AQ Index Pollutant
Not available.

Snow Depth

Station Depth Elevation

Earthquake Activity

City Distance Mag. Time & Date
Minimum magnitude displayed is 2.5.

Coastal Water Temperatures

Place Temperature

Stations

Nearby Weather Stations

Station Location Temp. Windchill Dew Point Humidity Wind Precip. Elev Updated Type